Terminal Aerodrome Forecast
Issued by NWS

Home | Current Version | Previous Version | Text Only | Print | Product List | Glossary On
Versions: 1 2 3 4 5 6 7 8 9 10 11 12 13 14 15 16 17
335
FTUS42 KMLB 081310 AAA
TAFSFB
TAF AMD
KSFB 081310Z 0813/0912 32005KT P6SM SCT005
     FM081400 34008KT P6SM FEW030 SCT250
     FM090300 35011KT P6SM BKN120=

USA.gov is the U.S. government's official web portal to all federal, state and local government web resources and services.